sensor_id;sensor_type;location;lat;lon;timestamp;P1;durP1;ratioP1;P2;durP2;ratioP2
4533;SDS011;2279;51.448;7.306;2022-12-07T00:01:36;52.92;;;33.50;;
4533;SDS011;2279;51.448;7.306;2022-12-07T00:04:04;57.80;;;31.60;;
4533;SDS011;2279;51.448;7.306;2022-12-07T00:06:31;54.60;;;32.63;;
4533;SDS011;2279;51.448;7.306;2022-12-07T00:08:57;50.08;;;29.30;;
4533;SDS011;2279;51.448;7.306;2022-12-07T00:11:23;57.15;;;31.80;;
4533;SDS011;2279;51.448;7.306;2022-12-07T00:13:53;60.70;;;32.57;;
4533;SDS011;2279;51.448;7.306;2022-12-07T00:16:20;54.13;;;30.77;;
4533;SDS011;2279;51.448;7.306;2022-12-07T00:18:47;50.47;;;30.67;;
4533;SDS011;2279;51.448;7.306;2022-12-07T00:21:14;59.20;;;33.50;;
4533;SDS011;2279;51.448;7.306;2022-12-07T00:23:41;61.70;;;34.95;;
4533;SDS011;2279;51.448;7.306;2022-12-07T00:26:09;56.97;;;30.67;;
4533;SDS011;2279;51.448;7.306;2022-12-07T00:28:35;56.22;;;30.25;;
4533;SDS011;2279;51.448;7.306;2022-12-07T00:31:02;49.47;;;28.53;;
4533;SDS011;2279;51.448;7.306;2022-12-07T00:33:28;51.03;;;28.75;;
4533;SDS011;2279;51.448;7.306;2022-12-07T00:35:55;51.57;;;29.27;;
4533;SDS011;2279;51.448;7.306;2022-12-07T00:38:21;58.00;;;33.33;;
4533;SDS011;2279;51.448;7.306;2022-12-07T00:40:53;56.27;;;29.80;;
4533;SDS011;2279;51.448;7.306;2022-12-07T00:43:19;46.88;;;29.05;;
4533;SDS011;2279;51.448;7.306;2022-12-07T00:45:45;49.80;;;28.77;;
4533;SDS011;2279;51.448;7.306;2022-12-07T00:48:11;51.13;;;29.07;;
4533;SDS011;2279;51.448;7.306;2022-12-07T00:50:37;54.97;;;29.87;;
4533;SDS011;2279;51.448;7.306;2022-12-07T00:53:03;49.03;;;30.67;;
4533;SDS011;2279;51.448;7.306;2022-12-07T00:55:32;60.40;;;34.00;;
4533;SDS011;2279;51.448;7.306;2022-12-07T00:57:58;52.30;;;29.65;;
4533;SDS011;2279;51.448;7.306;2022-12-07T01:00:24;50.07;;;28.60;;
4533;SDS011;2279;51.448;7.306;2022-12-07T01:02:50;55.42;;;29.95;;
4533;SDS011;2279;51.448;7.306;2022-12-07T01:05:16;56.53;;;29.20;;
4533;SDS011;2279;51.448;7.306;2022-12-07T01:07:42;53.10;;;30.17;;
4533;SDS011;2279;51.448;7.306;2022-12-07T01:10:08;53.53;;;30.00;;
4533;SDS011;2279;51.448;7.306;2022-12-07T01:12:34;54.03;;;29.00;;
4533;SDS011;2279;51.448;7.306;2022-12-07T01:15:00;64.20;;;31.07;;
4533;SDS011;2279;51.448;7.306;2022-12-07T01:17:26;51.17;;;29.40;;
4533;SDS011;2279;51.448;7.306;2022-12-07T01:19:53;51.83;;;30.10;;
4533;SDS011;2279;51.448;7.306;2022-12-07T01:22:19;53.67;;;32.30;;
4533;SDS011;2279;51.448;7.306;2022-12-07T01:24:45;55.40;;;33.23;;
4533;SDS011;2279;51.448;7.306;2022-12-07T01:27:12;58.28;;;32.10;;
4533;SDS011;2279;51.448;7.306;2022-12-07T01:29:38;54.10;;;31.25;;
4533;SDS011;2279;51.448;7.306;2022-12-07T01:32:04;64.27;;;33.90;;
4533;SDS011;2279;51.448;7.306;2022-12-07T01:34:31;53.88;;;30.10;;
4533;SDS011;2279;51.448;7.306;2022-12-07T01:36:57;68.40;;;32.57;;
4533;SDS011;2279;51.448;7.306;2022-12-07T01:39:23;56.33;;;32.00;;
4533;SDS011;2279;51.448;7.306;2022-12-07T01:41:49;61.70;;;32.63;;
4533;SDS011;2279;51.448;7.306;2022-12-07T01:46:51;55.70;;;31.15;;
4533;SDS011;2279;51.448;7.306;2022-12-07T01:49:23;63.13;;;33.92;;
4533;SDS011;2279;51.448;7.306;2022-12-07T01:51:51;54.80;;;32.30;;
4533;SDS011;2279;51.448;7.306;2022-12-07T01:54:18;72.88;;;32.42;;
4533;SDS011;2279;51.448;7.306;2022-12-07T01:56:45;61.83;;;33.45;;
4533;SDS011;2279;51.448;7.306;2022-12-07T01:59:13;63.53;;;33.75;;
4533;SDS011;2279;51.448;7.306;2022-12-07T02:01:40;56.58;;;33.40;;
4533;SDS011;2279;51.448;7.306;2022-12-07T02:04:06;61.80;;;32.77;;
4533;SDS011;2279;51.448;7.306;2022-12-07T02:06:32;58.67;;;31.60;;
4533;SDS011;2279;51.448;7.306;2022-12-07T02:08:59;52.60;;;29.75;;
4533;SDS011;2279;51.448;7.306;2022-12-07T02:11:25;68.40;;;34.67;;
4533;SDS011;2279;51.448;7.306;2022-12-07T02:13:51;57.67;;;32.33;;
4533;SDS011;2279;51.448;7.306;2022-12-07T02:27:26;55.60;;;30.38;;
4533;SDS011;2279;51.448;7.306;2022-12-07T02:29:35;62.45;;;32.53;;
4533;SDS011;2279;51.448;7.306;2022-12-07T02:32:09;52.90;;;30.33;;
4533;SDS011;2279;51.448;7.306;2022-12-07T02:34:42;51.13;;;29.27;;
4533;SDS011;2279;51.448;7.306;2022-12-07T02:37:13;50.40;;;28.77;;
4533;SDS011;2279;51.448;7.306;2022-12-07T02:39:50;48.78;;;28.05;;
4533;SDS011;2279;51.448;7.306;2022-12-07T02:42:17;54.55;;;29.80;;
4533;SDS011;2279;51.448;7.306;2022-12-07T02:44:44;49.83;;;28.83;;
4533;SDS011;2279;51.448;7.306;2022-12-07T02:47:12;51.92;;;28.50;;
4533;SDS011;2279;51.448;7.306;2022-12-07T02:49:39;51.03;;;28.30;;
4533;SDS011;2279;51.448;7.306;2022-12-07T02:52:05;58.83;;;31.02;;
4533;SDS011;2279;51.448;7.306;2022-12-07T02:54:31;51.83;;;26.50;;
4533;SDS011;2279;51.448;7.306;2022-12-07T02:59:40;42.92;;;25.13;;
4533;SDS011;2279;51.448;7.306;2022-12-07T03:12:37;52.63;;;27.30;;
4533;SDS011;2279;51.448;7.306;2022-12-07T03:15:18;43.00;;;25.38;;
4533;SDS011;2279;51.448;7.306;2022-12-07T03:17:46;40.97;;;23.45;;
4533;SDS011;2279;51.448;7.306;2022-12-07T03:20:13;41.25;;;25.30;;
4533;SDS011;2279;51.448;7.306;2022-12-07T03:22:39;46.83;;;27.63;;
4533;SDS011;2279;51.448;7.306;2022-12-07T03:25:09;47.85;;;23.90;;
4533;SDS011;2279;51.448;7.306;2022-12-07T03:27:44;47.42;;;24.30;;
4533;SDS011;2279;51.448;7.306;2022-12-07T03:30:15;52.75;;;24.98;;
4533;SDS011;2279;51.448;7.306;2022-12-07T03:43:34;48.80;;;27.80;;
4533;SDS011;2279;51.448;7.306;2022-12-07T03:46:02;46.42;;;25.67;;
4533;SDS011;2279;51.448;7.306;2022-12-07T03:48:33;44.15;;;26.65;;
4533;SDS011;2279;51.448;7.306;2022-12-07T03:51:02;41.65;;;24.88;;
4533;SDS011;2279;51.448;7.306;2022-12-07T03:53:52;38.90;;;22.23;;
4533;SDS011;2279;51.448;7.306;2022-12-07T03:56:21;49.30;;;25.40;;
4533;SDS011;2279;51.448;7.306;2022-12-07T03:58:47;48.28;;;26.83;;
4533;SDS011;2279;51.448;7.306;2022-12-07T04:01:14;42.42;;;24.50;;
4533;SDS011;2279;51.448;7.306;2022-12-07T04:03:40;38.60;;;25.13;;
4533;SDS011;2279;51.448;7.306;2022-12-07T04:06:07;45.97;;;24.93;;
4533;SDS011;2279;51.448;7.306;2022-12-07T04:08:33;41.92;;;25.38;;
4533;SDS011;2279;51.448;7.306;2022-12-07T04:10:59;41.70;;;24.80;;
4533;SDS011;2279;51.448;7.306;2022-12-07T04:13:24;46.07;;;25.17;;
4533;SDS011;2279;51.448;7.306;2022-12-07T04:15:50;52.03;;;26.17;;
4533;SDS011;2279;51.448;7.306;2022-12-07T04:18:16;42.33;;;25.90;;
4533;SDS011;2279;51.448;7.306;2022-12-07T04:20:42;42.93;;;24.50;;
4533;SDS011;2279;51.448;7.306;2022-12-07T04:23:08;40.77;;;24.50;;
4533;SDS011;2279;51.448;7.306;2022-12-07T04:25:34;48.67;;;26.67;;
4533;SDS011;2279;51.448;7.306;2022-12-07T04:28:00;57.07;;;25.30;;
4533;SDS011;2279;51.448;7.306;2022-12-07T04:30:26;46.63;;;24.53;;
4533;SDS011;2279;51.448;7.306;2022-12-07T04:32:52;44.47;;;24.80;;
4533;SDS011;2279;51.448;7.306;2022-12-07T04:35:18;39.97;;;22.73;;
4533;SDS011;2279;51.448;7.306;2022-12-07T04:37:44;43.07;;;24.90;;
4533;SDS011;2279;51.448;7.306;2022-12-07T04:40:10;49.28;;;25.83;;
4533;SDS011;2279;51.448;7.306;2022-12-07T04:42:39;36.63;;;22.85;;
4533;SDS011;2279;51.448;7.306;2022-12-07T04:45:05;40.00;;;23.47;;
4533;SDS011;2279;51.448;7.306;2022-12-07T04:47:31;48.88;;;25.30;;
4533;SDS011;2279;51.448;7.306;2022-12-07T04:49:57;37.97;;;22.00;;
4533;SDS011;2279;51.448;7.306;2022-12-07T04:52:23;53.33;;;24.90;;
4533;SDS011;2279;51.448;7.306;2022-12-07T04:54:49;39.27;;;22.23;;
4533;SDS011;2279;51.448;7.306;2022-12-07T04:57:15;44.03;;;24.23;;
4533;SDS011;2279;51.448;7.306;2022-12-07T04:59:41;38.03;;;22.20;;
4533;SDS011;2279;51.448;7.306;2022-12-07T05:02:07;43.27;;;24.70;;
4533;SDS011;2279;51.448;7.306;2022-12-07T05:04:33;46.23;;;24.37;;
4533;SDS011;2279;51.448;7.306;2022-12-07T05:06:59;45.22;;;22.25;;
4533;SDS011;2279;51.448;7.306;2022-12-07T05:09:25;44.83;;;24.30;;
4533;SDS011;2279;51.448;7.306;2022-12-07T05:11:50;41.23;;;22.03;;
4533;SDS011;2279;51.448;7.306;2022-12-07T05:14:18;46.63;;;22.60;;
4533;SDS011;2279;51.448;7.306;2022-12-07T05:16:45;51.60;;;23.35;;
4533;SDS011;2279;51.448;7.306;2022-12-07T05:19:11;36.92;;;21.88;;
4533;SDS011;2279;51.448;7.306;2022-12-07T05:21:37;40.70;;;20.77;;
4533;SDS011;2279;51.448;7.306;2022-12-07T05:24:04;40.70;;;22.65;;
4533;SDS011;2279;51.448;7.306;2022-12-07T05:26:30;41.40;;;23.55;;
4533;SDS011;2279;51.448;7.306;2022-12-07T05:28:56;39.83;;;22.25;;
4533;SDS011;2279;51.448;7.306;2022-12-07T05:31:22;44.60;;;24.10;;
4533;SDS011;2279;51.448;7.306;2022-12-07T05:33:48;36.90;;;22.25;;
4533;SDS011;2279;51.448;7.306;2022-12-07T05:36:14;45.13;;;23.03;;
4533;SDS011;2279;51.448;7.306;2022-12-07T05:38:41;37.80;;;22.02;;
4533;SDS011;2279;51.448;7.306;2022-12-07T05:41:07;41.17;;;24.55;;
4533;SDS011;2279;51.448;7.306;2022-12-07T05:43:53;36.92;;;22.38;;
4533;SDS011;2279;51.448;7.306;2022-12-07T05:46:19;43.72;;;23.65;;
4533;SDS011;2279;51.448;7.306;2022-12-07T05:48:45;42.13;;;22.47;;
4533;SDS011;2279;51.448;7.306;2022-12-07T05:51:11;52.00;;;24.73;;
4533;SDS011;2279;51.448;7.306;2022-12-07T05:53:38;47.03;;;23.77;;
4533;SDS011;2279;51.448;7.306;2022-12-07T05:56:04;49.35;;;25.00;;
4533;SDS011;2279;51.448;7.306;2022-12-07T05:58:30;37.33;;;21.60;;
4533;SDS011;2279;51.448;7.306;2022-12-07T06:01:16;45.28;;;22.83;;
4533;SDS011;2279;51.448;7.306;2022-12-07T06:03:42;42.90;;;22.67;;
4533;SDS011;2279;51.448;7.306;2022-12-07T06:06:09;46.00;;;23.77;;
4533;SDS011;2279;51.448;7.306;2022-12-07T06:08:35;41.93;;;23.77;;
4533;SDS011;2279;51.448;7.306;2022-12-07T06:11:01;40.67;;;24.03;;
4533;SDS011;2279;51.448;7.306;2022-12-07T06:13:46;43.10;;;23.85;;
4533;SDS011;2279;51.448;7.306;2022-12-07T06:16:12;46.33;;;23.20;;
4533;SDS011;2279;51.448;7.306;2022-12-07T06:18:41;43.13;;;24.50;;
4533;SDS011;2279;51.448;7.306;2022-12-07T06:21:07;39.05;;;23.08;;
4533;SDS011;2279;51.448;7.306;2022-12-07T06:23:33;42.17;;;24.43;;
4533;SDS011;2279;51.448;7.306;2022-12-07T06:25:59;43.93;;;24.90;;
4533;SDS011;2279;51.448;7.306;2022-12-07T06:28:25;44.13;;;24.73;;
4533;SDS011;2279;51.448;7.306;2022-12-07T06:31:00;38.57;;;22.10;;
4533;SDS011;2279;51.448;7.306;2022-12-07T06:33:26;44.63;;;20.92;;
4533;SDS011;2279;51.448;7.306;2022-12-07T06:35:53;42.05;;;22.73;;
4533;SDS011;2279;51.448;7.306;2022-12-07T06:38:19;36.30;;;22.20;;
4533;SDS011;2279;51.448;7.306;2022-12-07T06:40:45;41.90;;;22.43;;
4533;SDS011;2279;51.448;7.306;2022-12-07T06:43:11;44.30;;;21.60;;
4533;SDS011;2279;51.448;7.306;2022-12-07T06:45:36;33.80;;;22.10;;
4533;SDS011;2279;51.448;7.306;2022-12-07T06:48:02;36.23;;;22.20;;
4533;SDS011;2279;51.448;7.306;2022-12-07T06:50:28;39.77;;;22.80;;
4533;SDS011;2279;51.448;7.306;2022-12-07T06:52:54;37.47;;;22.40;;
4533;SDS011;2279;51.448;7.306;2022-12-07T06:55:20;36.63;;;21.40;;
4533;SDS011;2279;51.448;7.306;2022-12-07T06:57:46;33.77;;;19.87;;
4533;SDS011;2279;51.448;7.306;2022-12-07T07:00:12;32.67;;;20.17;;
4533;SDS011;2279;51.448;7.306;2022-12-07T07:02:38;30.77;;;20.90;;
4533;SDS011;2279;51.448;7.306;2022-12-07T07:05:06;36.63;;;20.20;;
4533;SDS011;2279;51.448;7.306;2022-12-07T07:07:32;33.40;;;22.05;;
4533;SDS011;2279;51.448;7.306;2022-12-07T07:09:58;34.53;;;19.93;;
4533;SDS011;2279;51.448;7.306;2022-12-07T07:12:24;31.27;;;19.97;;
4533;SDS011;2279;51.448;7.306;2022-12-07T07:14:50;30.27;;;19.70;;
4533;SDS011;2279;51.448;7.306;2022-12-07T07:17:16;33.50;;;18.98;;
4533;SDS011;2279;51.448;7.306;2022-12-07T07:19:42;31.30;;;17.90;;
4533;SDS011;2279;51.448;7.306;2022-12-07T07:22:08;29.42;;;18.50;;
4533;SDS011;2279;51.448;7.306;2022-12-07T07:24:34;33.80;;;17.50;;
4533;SDS011;2279;51.448;7.306;2022-12-07T07:27:00;34.37;;;19.30;;
4533;SDS011;2279;51.448;7.306;2022-12-07T07:29:27;37.50;;;19.98;;
4533;SDS011;2279;51.448;7.306;2022-12-07T07:31:53;36.50;;;19.73;;
4533;SDS011;2279;51.448;7.306;2022-12-07T07:34:19;29.33;;;17.77;;
4533;SDS011;2279;51.448;7.306;2022-12-07T07:36:45;34.47;;;18.50;;
4533;SDS011;2279;51.448;7.306;2022-12-07T07:39:12;33.30;;;18.00;;
4533;SDS011;2279;51.448;7.306;2022-12-07T07:41:38;31.43;;;17.80;;
4533;SDS011;2279;51.448;7.306;2022-12-07T07:44:04;34.15;;;18.50;;
4533;SDS011;2279;51.448;7.306;2022-12-07T07:46:30;31.17;;;17.73;;
4533;SDS011;2279;51.448;7.306;2022-12-07T07:48:58;32.55;;;17.55;;
4533;SDS011;2279;51.448;7.306;2022-12-07T07:51:23;33.40;;;20.43;;
4533;SDS011;2279;51.448;7.306;2022-12-07T07:53:49;34.93;;;16.50;;
4533;SDS011;2279;51.448;7.306;2022-12-07T07:56:15;33.37;;;19.40;;
4533;SDS011;2279;51.448;7.306;2022-12-07T07:58:41;30.30;;;19.50;;
4533;SDS011;2279;51.448;7.306;2022-12-07T08:01:07;34.70;;;18.00;;
4533;SDS011;2279;51.448;7.306;2022-12-07T08:03:34;27.95;;;17.13;;
4533;SDS011;2279;51.448;7.306;2022-12-07T08:06:01;27.93;;;18.50;;
4533;SDS011;2279;51.448;7.306;2022-12-07T08:08:27;26.60;;;16.35;;
4533;SDS011;2279;51.448;7.306;2022-12-07T08:10:53;27.17;;;17.60;;
4533;SDS011;2279;51.448;7.306;2022-12-07T08:13:19;28.00;;;16.00;;
4533;SDS011;2279;51.448;7.306;2022-12-07T08:15:46;24.17;;;15.25;;
4533;SDS011;2279;51.448;7.306;2022-12-07T08:18:13;30.13;;;17.20;;
4533;SDS011;2279;51.448;7.306;2022-12-07T08:20:39;28.42;;;16.67;;
4533;SDS011;2279;51.448;7.306;2022-12-07T08:23:05;26.98;;;16.58;;
4533;SDS011;2279;51.448;7.306;2022-12-07T08:25:32;25.02;;;15.80;;
4533;SDS011;2279;51.448;7.306;2022-12-07T08:27:59;24.05;;;14.45;;
4533;SDS011;2279;51.448;7.306;2022-12-07T08:30:26;22.02;;;15.23;;
4533;SDS011;2279;51.448;7.306;2022-12-07T08:32:52;21.38;;;13.25;;
4533;SDS011;2279;51.448;7.306;2022-12-07T08:35:18;27.95;;;15.07;;
4533;SDS011;2279;51.448;7.306;2022-12-07T08:37:44;22.07;;;13.97;;
4533;SDS011;2279;51.448;7.306;2022-12-07T08:40:11;28.98;;;15.23;;
4533;SDS011;2279;51.448;7.306;2022-12-07T08:42:43;21.50;;;13.10;;
4533;SDS011;2279;51.448;7.306;2022-12-07T08:45:11;19.63;;;13.48;;
4533;SDS011;2279;51.448;7.306;2022-12-07T08:47:38;26.95;;;14.93;;
4533;SDS011;2279;51.448;7.306;2022-12-07T08:50:06;23.27;;;13.60;;
4533;SDS011;2279;51.448;7.306;2022-12-07T08:52:32;26.25;;;14.77;;
4533;SDS011;2279;51.448;7.306;2022-12-07T08:54:59;29.70;;;16.00;;
4533;SDS011;2279;51.448;7.306;2022-12-07T08:57:26;25.20;;;14.60;;
4533;SDS011;2279;51.448;7.306;2022-12-07T08:59:53;20.85;;;13.43;;
4533;SDS011;2279;51.448;7.306;2022-12-07T09:02:19;24.93;;;13.70;;
4533;SDS011;2279;51.448;7.306;2022-12-07T09:04:45;26.63;;;14.37;;
4533;SDS011;2279;51.448;7.306;2022-12-07T09:07:11;22.73;;;14.20;;
4533;SDS011;2279;51.448;7.306;2022-12-07T09:09:36;22.43;;;14.50;;
4533;SDS011;2279;51.448;7.306;2022-12-07T09:12:02;25.60;;;14.97;;
4533;SDS011;2279;51.448;7.306;2022-12-07T09:14:29;25.80;;;14.15;;
4533;SDS011;2279;51.448;7.306;2022-12-07T09:16:55;27.60;;;15.20;;
4533;SDS011;2279;51.448;7.306;2022-12-07T09:19:20;24.20;;;13.80;;
4533;SDS011;2279;51.448;7.306;2022-12-07T09:21:46;23.00;;;13.57;;
4533;SDS011;2279;51.448;7.306;2022-12-07T09:24:13;25.70;;;14.20;;
4533;SDS011;2279;51.448;7.306;2022-12-07T09:26:39;20.60;;;13.15;;
4533;SDS011;2279;51.448;7.306;2022-12-07T09:29:05;21.92;;;14.43;;
4533;SDS011;2279;51.448;7.306;2022-12-07T09:31:31;16.40;;;12.27;;
4533;SDS011;2279;51.448;7.306;2022-12-07T09:33:58;22.63;;;12.43;;
4533;SDS011;2279;51.448;7.306;2022-12-07T09:36:24;25.48;;;13.50;;
4533;SDS011;2279;51.448;7.306;2022-12-07T09:38:50;21.70;;;12.40;;
4533;SDS011;2279;51.448;7.306;2022-12-07T09:41:16;17.60;;;12.17;;
4533;SDS011;2279;51.448;7.306;2022-12-07T09:43:42;24.03;;;12.87;;
4533;SDS011;2279;51.448;7.306;2022-12-07T09:46:12;22.73;;;13.77;;
4533;SDS011;2279;51.448;7.306;2022-12-07T09:48:39;21.40;;;13.50;;
4533;SDS011;2279;51.448;7.306;2022-12-07T09:51:21;23.50;;;13.80;;
4533;SDS011;2279;51.448;7.306;2022-12-07T09:53:48;27.47;;;16.27;;
4533;SDS011;2279;51.448;7.306;2022-12-07T09:56:15;24.83;;;16.17;;
4533;SDS011;2279;51.448;7.306;2022-12-07T09:58:43;29.30;;;17.53;;
4533;SDS011;2279;51.448;7.306;2022-12-07T10:01:11;30.45;;;16.95;;
4533;SDS011;2279;51.448;7.306;2022-12-07T10:03:38;24.63;;;16.87;;
4533;SDS011;2279;51.448;7.306;2022-12-07T10:06:05;25.17;;;16.20;;
4533;SDS011;2279;51.448;7.306;2022-12-07T10:08:32;29.20;;;18.43;;
4533;SDS011;2279;51.448;7.306;2022-12-07T10:10:58;27.20;;;17.77;;
4533;SDS011;2279;51.448;7.306;2022-12-07T10:13:35;24.07;;;16.53;;
4533;SDS011;2279;51.448;7.306;2022-12-07T10:16:01;21.27;;;16.03;;
4533;SDS011;2279;51.448;7.306;2022-12-07T10:18:31;28.40;;;16.47;;
4533;SDS011;2279;51.448;7.306;2022-12-07T10:23:29;20.77;;;14.40;;
4533;SDS011;2279;51.448;7.306;2022-12-07T10:25:55;22.03;;;12.67;;
4533;SDS011;2279;51.448;7.306;2022-12-07T10:28:21;25.80;;;12.20;;
4533;SDS011;2279;51.448;7.306;2022-12-07T10:30:54;25.40;;;13.40;;
4533;SDS011;2279;51.448;7.306;2022-12-07T10:35:54;20.07;;;12.90;;
4533;SDS011;2279;51.448;7.306;2022-12-07T10:38:20;20.33;;;12.70;;
4533;SDS011;2279;51.448;7.306;2022-12-07T10:40:47;13.77;;;10.90;;
4533;SDS011;2279;51.448;7.306;2022-12-07T10:43:27;18.67;;;10.53;;
4533;SDS011;2279;51.448;7.306;2022-12-07T10:45:59;15.77;;;11.60;;
4533;SDS011;2279;51.448;7.306;2022-12-07T10:58:48;9.57;;;8.57;;
4533;SDS011;2279;51.448;7.306;2022-12-07T11:03:58;11.80;;;8.60;;
4533;SDS011;2279;51.448;7.306;2022-12-07T11:11:59;10.57;;;8.23;;
4533;SDS011;2279;51.448;7.306;2022-12-07T11:14:40;22.37;;;9.93;;
4533;SDS011;2279;51.448;7.306;2022-12-07T11:20:43;22.03;;;10.40;;
4533;SDS011;2279;51.448;7.306;2022-12-07T11:22:40;13.60;;;9.67;;
4533;SDS011;2279;51.448;7.306;2022-12-07T11:27:41;15.53;;;9.03;;
4533;SDS011;2279;51.448;7.306;2022-12-07T11:30:12;13.60;;;8.80;;
4533;SDS011;2279;51.448;7.306;2022-12-07T11:35:38;11.30;;;8.77;;
4533;SDS011;2279;51.448;7.306;2022-12-07T11:38:10;16.40;;;9.23;;
4533;SDS011;2279;51.448;7.306;2022-12-07T11:40:37;15.67;;;9.23;;
4533;SDS011;2279;51.448;7.306;2022-12-07T11:45:42;13.60;;;8.07;;
4533;SDS011;2279;51.448;7.306;2022-12-07T11:50:36;11.70;;;7.97;;
4533;SDS011;2279;51.448;7.306;2022-12-07T11:53:10;12.33;;;7.53;;
4533;SDS011;2279;51.448;7.306;2022-12-07T11:55:49;14.63;;;7.87;;
4533;SDS011;2279;51.448;7.306;2022-12-07T12:01:14;11.10;;;7.23;;
4533;SDS011;2279;51.448;7.306;2022-12-07T12:03:42;10.30;;;6.63;;
4533;SDS011;2279;51.448;7.306;2022-12-07T12:06:09;12.00;;;8.20;;
4533;SDS011;2279;51.448;7.306;2022-12-07T12:08:38;12.13;;;7.73;;
4533;SDS011;2279;51.448;7.306;2022-12-07T12:13:41;13.10;;;8.03;;
4533;SDS011;2279;51.448;7.306;2022-12-07T12:21:20;12.63;;;5.50;;
4533;SDS011;2279;51.448;7.306;2022-12-07T12:26:20;6.67;;;4.80;;
4533;SDS011;2279;51.448;7.306;2022-12-07T12:33:50;6.73;;;4.80;;
4533;SDS011;2279;51.448;7.306;2022-12-07T12:47:01;9.57;;;4.80;;
4533;SDS011;2279;51.448;7.306;2022-12-07T12:54:32;8.88;;;5.32;;
4533;SDS011;2279;51.448;7.306;2022-12-07T12:59:31;16.00;;;9.83;;
4533;SDS011;2279;51.448;7.306;2022-12-07T13:04:53;25.27;;;10.10;;
4533;SDS011;2279;51.448;7.306;2022-12-07T13:10:09;17.70;;;9.57;;
4533;SDS011;2279;51.448;7.306;2022-12-07T13:15:35;13.03;;;6.47;;
4533;SDS011;2279;51.448;7.306;2022-12-07T13:18:23;16.67;;;7.50;;
4533;SDS011;2279;51.448;7.306;2022-12-07T13:20:49;13.63;;;7.87;;
4533;SDS011;2279;51.448;7.306;2022-12-07T13:23:23;12.60;;;6.83;;
4533;SDS011;2279;51.448;7.306;2022-12-07T13:26:09;12.50;;;7.70;;
4533;SDS011;2279;51.448;7.306;2022-12-07T13:28:40;9.53;;;6.67;;
4533;SDS011;2279;51.448;7.306;2022-12-07T13:33:39;9.50;;;6.80;;
4533;SDS011;2279;51.448;7.306;2022-12-07T13:36:08;12.13;;;6.70;;
4533;SDS011;2279;51.448;7.306;2022-12-07T13:38:39;10.23;;;7.27;;
4533;SDS011;2279;51.448;7.306;2022-12-07T13:43:42;10.80;;;7.27;;
4533;SDS011;2279;51.448;7.306;2022-12-07T13:46:08;10.73;;;7.80;;
4533;SDS011;2279;51.448;7.306;2022-12-07T13:48:48;14.43;;;7.00;;
4533;SDS011;2279;51.448;7.306;2022-12-07T13:51:19;7.00;;;6.37;;
4533;SDS011;2279;51.448;7.306;2022-12-07T13:53:49;11.17;;;6.83;;
4533;SDS011;2279;51.448;7.306;2022-12-07T13:56:15;7.80;;;5.73;;
4533;SDS011;2279;51.448;7.306;2022-12-07T13:58:41;14.00;;;6.27;;
4533;SDS011;2279;51.448;7.306;2022-12-07T14:01:07;13.90;;;6.67;;
4533;SDS011;2279;51.448;7.306;2022-12-07T14:03:34;7.70;;;5.57;;
4533;SDS011;2279;51.448;7.306;2022-12-07T14:06:05;5.97;;;5.33;;
4533;SDS011;2279;51.448;7.306;2022-12-07T14:08:32;8.47;;;5.27;;
4533;SDS011;2279;51.448;7.306;2022-12-07T14:10:58;9.87;;;5.17;;
4533;SDS011;2279;51.448;7.306;2022-12-07T14:15:53;16.30;;;7.63;;
4533;SDS011;2279;51.448;7.306;2022-12-07T14:18:27;11.10;;;7.77;;
4533;SDS011;2279;51.448;7.306;2022-12-07T14:21:03;12.30;;;7.37;;
4533;SDS011;2279;51.448;7.306;2022-12-07T14:23:29;7.40;;;4.50;;
4533;SDS011;2279;51.448;7.306;2022-12-07T14:26:03;3.70;;;3.40;;
4533;SDS011;2279;51.448;7.306;2022-12-07T14:28:30;3.97;;;2.88;;
4533;SDS011;2279;51.448;7.306;2022-12-07T14:30:57;5.55;;;4.47;;
4533;SDS011;2279;51.448;7.306;2022-12-07T14:33:23;8.07;;;4.05;;
4533;SDS011;2279;51.448;7.306;2022-12-07T14:35:49;4.53;;;4.15;;
4533;SDS011;2279;51.448;7.306;2022-12-07T14:38:19;4.43;;;4.13;;
4533;SDS011;2279;51.448;7.306;2022-12-07T14:40:46;5.82;;;5.43;;
4533;SDS011;2279;51.448;7.306;2022-12-07T14:43:12;4.90;;;4.50;;
4533;SDS011;2279;51.448;7.306;2022-12-07T14:45:40;5.82;;;5.22;;
4533;SDS011;2279;51.448;7.306;2022-12-07T14:48:07;5.40;;;4.83;;
4533;SDS011;2279;51.448;7.306;2022-12-07T14:50:35;5.38;;;4.97;;
4533;SDS011;2279;51.448;7.306;2022-12-07T14:53:03;8.52;;;5.05;;
4533;SDS011;2279;51.448;7.306;2022-12-07T14:55:32;9.38;;;6.30;;
4533;SDS011;2279;51.448;7.306;2022-12-07T14:57:58;8.93;;;5.10;;
4533;SDS011;2279;51.448;7.306;2022-12-07T15:00:24;6.10;;;5.55;;
4533;SDS011;2279;51.448;7.306;2022-12-07T15:02:51;7.55;;;5.82;;
4533;SDS011;2279;51.448;7.306;2022-12-07T15:05:17;8.02;;;5.45;;
4533;SDS011;2279;51.448;7.306;2022-12-07T15:07:44;5.60;;;5.20;;
4533;SDS011;2279;51.448;7.306;2022-12-07T15:10:33;6.40;;;5.80;;
4533;SDS011;2279;51.448;7.306;2022-12-07T15:12:57;6.45;;;5.30;;
4533;SDS011;2279;51.448;7.306;2022-12-07T15:15:43;10.95;;;6.45;;
4533;SDS011;2279;51.448;7.306;2022-12-07T15:18:09;13.13;;;6.60;;
4533;SDS011;2279;51.448;7.306;2022-12-07T15:20:35;8.10;;;6.70;;
4533;SDS011;2279;51.448;7.306;2022-12-07T15:23:01;7.77;;;7.07;;
4533;SDS011;2279;51.448;7.306;2022-12-07T15:25:27;10.50;;;7.83;;
4533;SDS011;2279;51.448;7.306;2022-12-07T15:27:53;8.90;;;7.83;;
4533;SDS011;2279;51.448;7.306;2022-12-07T15:30:19;12.93;;;8.30;;
4533;SDS011;2279;51.448;7.306;2022-12-07T15:32:48;17.77;;;9.33;;
4533;SDS011;2279;51.448;7.306;2022-12-07T15:35:14;9.07;;;7.40;;
4533;SDS011;2279;51.448;7.306;2022-12-07T15:37:40;10.03;;;8.07;;
4533;SDS011;2279;51.448;7.306;2022-12-07T15:40:07;14.93;;;7.30;;
4533;SDS011;2279;51.448;7.306;2022-12-07T15:42:33;10.07;;;7.43;;
4533;SDS011;2279;51.448;7.306;2022-12-07T15:44:59;10.17;;;6.80;;
4533;SDS011;2279;51.448;7.306;2022-12-07T15:47:35;13.68;;;7.13;;
4533;SDS011;2279;51.448;7.306;2022-12-07T15:50:02;12.85;;;7.75;;
4533;SDS011;2279;51.448;7.306;2022-12-07T15:52:29;9.40;;;7.70;;
4533;SDS011;2279;51.448;7.306;2022-12-07T15:54:55;10.00;;;7.00;;
4533;SDS011;2279;51.448;7.306;2022-12-07T15:57:21;9.83;;;6.83;;
4533;SDS011;2279;51.448;7.306;2022-12-07T15:59:47;11.32;;;6.40;;
4533;SDS011;2279;51.448;7.306;2022-12-07T16:02:13;8.52;;;7.05;;
4533;SDS011;2279;51.448;7.306;2022-12-07T16:04:39;16.13;;;9.17;;
4533;SDS011;2279;51.448;7.306;2022-12-07T16:07:05;12.77;;;7.00;;
4533;SDS011;2279;51.448;7.306;2022-12-07T16:09:31;11.67;;;6.97;;
4533;SDS011;2279;51.448;7.306;2022-12-07T16:11:57;11.67;;;7.10;;
4533;SDS011;2279;51.448;7.306;2022-12-07T16:14:23;14.07;;;7.03;;
4533;SDS011;2279;51.448;7.306;2022-12-07T16:16:49;10.83;;;6.77;;
4533;SDS011;2279;51.448;7.306;2022-12-07T16:19:15;7.60;;;6.90;;
4533;SDS011;2279;51.448;7.306;2022-12-07T16:21:41;10.40;;;6.83;;
4533;SDS011;2279;51.448;7.306;2022-12-07T16:24:07;20.25;;;7.30;;
4533;SDS011;2279;51.448;7.306;2022-12-07T16:26:33;10.77;;;6.70;;
4533;SDS011;2279;51.448;7.306;2022-12-07T16:28:59;11.00;;;6.90;;
4533;SDS011;2279;51.448;7.306;2022-12-07T16:31:26;12.13;;;7.55;;
4533;SDS011;2279;51.448;7.306;2022-12-07T16:33:53;9.10;;;6.60;;
4533;SDS011;2279;51.448;7.306;2022-12-07T16:36:19;12.63;;;7.45;;
4533;SDS011;2279;51.448;7.306;2022-12-07T16:38:47;12.35;;;7.43;;
4533;SDS011;2279;51.448;7.306;2022-12-07T16:41:13;15.52;;;9.52;;
4533;SDS011;2279;51.448;7.306;2022-12-07T16:43:39;12.37;;;8.03;;
4533;SDS011;2279;51.448;7.306;2022-12-07T16:46:05;11.03;;;7.43;;
4533;SDS011;2279;51.448;7.306;2022-12-07T16:48:33;10.70;;;7.45;;
4533;SDS011;2279;51.448;7.306;2022-12-07T16:51:02;11.82;;;7.15;;
4533;SDS011;2279;51.448;7.306;2022-12-07T16:53:28;14.73;;;7.68;;
4533;SDS011;2279;51.448;7.306;2022-12-07T16:55:57;13.83;;;6.87;;
4533;SDS011;2279;51.448;7.306;2022-12-07T16:58:23;16.50;;;8.65;;
4533;SDS011;2279;51.448;7.306;2022-12-07T17:00:49;9.93;;;7.27;;
4533;SDS011;2279;51.448;7.306;2022-12-07T17:03:15;11.33;;;8.33;;